Time;durP1;ratioP1;P1;durP2;ratioP2;P2;SDS_P1;SDS_P2;PMS_P1;PMS_P2;Temp;Humidity;BMP_temperature;BMP_pressure;BME280_temperature;BME280_humidity;BME280_pressure;Samples;Min_cycle;Max_cycle;Signal;HPM_P1;HPM_P2
2021/12/17 00:04:39;;;;;;;56.75;19.73;;;2.30;99.90;;;;;;5011857;28;20121;-72
2021/12/17 00:07:14;;;;;;;43.78;17.60;;;2.40;99.90;;;;;;5004255;28;20068;-71
2021/12/17 00:09:42;;;;;;;43.20;17.10;;;2.40;99.90;;;;;;5012781;28;20041;-66
2021/12/17 00:12:11;;;;;;;44.08;17.10;;;2.50;99.90;;;;;;5011193;28;20429;-72
2021/12/17 00:14:39;;;;;;;43.95;17.95;;;2.50;99.90;;;;;;5012311;28;20573;-71
2021/12/17 00:17:10;;;;;;;96.70;20.50;;;2.60;99.90;;;;;;5012618;28;20030;-72
2021/12/17 00:49:19;;;;;;;44.42;18.00;;;2.70;99.90;;;;;;5009092;28;20450;-71
2021/12/17 00:54:32;;;;;;;46.25;17.27;;;2.70;99.90;;;;;;5012045;28;20036;-70
2021/12/17 00:57:00;;;;;;;43.30;16.15;;;2.70;99.90;;;;;;5009126;28;20442;-72
2021/12/17 00:59:27;;;;;;;47.00;17.77;;;2.70;99.90;;;;;;5011136;28;20037;-71
2021/12/17 01:01:55;;;;;;;43.72;17.67;;;2.80;99.90;;;;;;5010360;28;20488;-72
2021/12/17 01:04:20;;;;;;;46.63;17.75;;;2.80;99.90;;;;;;5006713;28;20096;-72
2021/12/17 01:06:46;;;;;;;42.30;16.77;;;2.80;99.90;;;;;;5010419;28;20038;-71
2021/12/17 01:09:16;;;;;;;46.95;17.33;;;2.80;99.90;;;;;;5010728;28;20029;-72
2021/12/17 01:11:42;;;;;;;45.60;17.20;;;2.80;99.90;;;;;;5010600;28;20053;-67
2021/12/17 01:14:08;;;;;;;43.65;16.80;;;2.80;99.90;;;;;;5010592;28;20096;-72
2021/12/17 01:16:34;;;;;;;41.15;16.30;;;2.80;99.90;;;;;;5011511;28;20117;-72
2021/12/17 01:40:52;;;;;;;42.63;16.75;;;3.00;99.90;;;;;;5009398;28;20485;-72
2021/12/17 01:42:35;;;;;;;108.22;21.80;;;3.00;99.90;;;;;;5000286;28;20557;-72
2021/12/17 01:45:00;;;;;;;45.67;17.15;;;3.10;99.90;;;;;;5009999;28;20037;-72
2021/12/17 01:47:26;;;;;;;50.45;19.27;;;3.10;99.90;;;;;;5026119;28;20083;-71
2021/12/17 02:00:50;;;;;;;189.00;23.25;;;3.10;99.90;;;;;;5008359;28;20087;-72
2021/12/17 02:03:17;;;;;;;98.53;20.20;;;3.10;99.90;;;;;;5010043;28;20064;-72
2021/12/17 02:05:44;;;;;;;45.47;17.77;;;3.10;99.90;;;;;;5008234;28;20026;-72
2021/12/17 02:08:10;;;;;;;45.15;18.35;;;3.10;99.90;;;;;;5008136;28;20041;-72
2021/12/17 02:30:12;;;;;;;54.80;16.92;;;3.40;99.90;;;;;;5008770;28;20084;-71
2021/12/17 02:32:39;;;;;;;57.25;17.80;;;3.40;99.90;;;;;;5009656;28;20037;-73
2021/12/17 02:37:46;;;;;;;43.35;16.58;;;3.40;99.90;;;;;;4995879;28;20032;-73
2021/12/17 02:42:32;;;;;;;44.55;16.80;;;3.30;99.90;;;;;;5003757;28;20033;-71
2021/12/17 02:45:48;;;;;;;44.50;16.73;;;3.50;99.90;;;;;;5009524;28;20121;-67
2021/12/17 02:48:18;;;;;;;46.00;17.55;;;3.50;99.90;;;;;;5008578;28;20033;-73
2021/12/17 02:50:58;;;;;;;46.40;18.05;;;3.50;99.90;;;;;;5008006;28;20029;-72
2021/12/17 02:53:26;;;;;;;41.63;16.90;;;3.50;99.90;;;;;;5009874;28;20471;-72
2021/12/17 02:56:01;;;;;;;42.78;15.65;;;3.40;99.90;;;;;;5007770;28;20053;-66
2021/12/17 02:58:30;;;;;;;43.03;16.73;;;3.40;99.90;;;;;;5007831;28;20058;-71
2021/12/17 03:00:57;;;;;;;47.92;17.98;;;3.50;99.90;;;;;;5008658;28;20033;-72
2021/12/17 03:03:27;;;;;;;46.70;16.30;;;3.40;99.90;;;;;;5008920;28;20474;-72
2021/12/17 03:05:54;;;;;;;42.63;16.00;;;3.50;99.90;;;;;;5007247;28;20435;-72
2021/12/17 03:08:19;;;;;;;43.28;16.38;;;3.50;99.90;;;;;;5009485;28;20038;-72
2021/12/17 03:10:48;;;;;;;47.67;17.15;;;3.60;99.90;;;;;;5008653;28;20486;-72
2021/12/17 03:13:15;;;;;;;45.00;17.95;;;3.70;99.90;;;;;;5008530;28;20050;-72
2021/12/17 03:18:48;;;;;;;41.97;15.77;;;3.60;99.90;;;;;;5008652;28;20077;-72
2021/12/17 03:24:03;;;;;;;;;;;3.70;99.90;;;;;;4986745;28;20030;-72
2021/12/17 03:26:30;;;;;;;40.95;13.75;;;3.80;99.90;;;;;;5004335;28;20404;-72
2021/12/17 03:29:02;;;;;;;39.75;15.27;;;3.80;99.90;;;;;;5008603;28;20062;-71
2021/12/17 03:31:29;;;;;;;42.20;15.27;;;3.80;99.90;;;;;;5008519;28;20069;-72
2021/12/17 03:34:03;;;;;;;38.92;14.50;;;3.90;99.90;;;;;;5008062;28;20451;-67
2021/12/17 03:36:29;;;;;;;36.17;13.80;;;3.90;99.90;;;;;;5007164;28;20533;-70
2021/12/17 03:38:55;;;;;;;39.25;13.80;;;3.90;99.90;;;;;;5007695;28;20070;-69
2021/12/17 03:41:29;;;;;;;33.50;13.65;;;4.00;99.90;;;;;;5009365;28;20391;-71
2021/12/17 03:43:55;;;;;;;34.28;13.20;;;4.00;99.90;;;;;;5007898;28;20629;-67
2021/12/17 03:46:22;;;;;;;31.58;12.77;;;4.00;99.90;;;;;;5009117;28;20482;-71
2021/12/17 03:48:48;;;;;;;33.60;12.85;;;4.00;99.90;;;;;;5008632;28;20033;-73
2021/12/17 03:51:16;;;;;;;31.80;12.00;;;4.10;99.90;;;;;;5006987;28;20052;-73
2021/12/17 03:53:47;;;;;;;31.27;11.45;;;4.10;99.90;;;;;;5008054;28;20112;-71
2021/12/17 03:56:12;;;;;;;;;;;4.10;99.90;;;;;;5008174;28;20049;-71
2021/12/17 03:58:38;;;;;;;31.02;10.85;;;4.10;99.90;;;;;;5008084;28;19905;-72
2021/12/17 04:01:05;;;;;;;32.08;12.50;;;4.10;99.90;;;;;;5010267;28;20029;-70
2021/12/17 04:03:31;;;;;;;36.03;14.40;;;4.10;99.90;;;;;;5031114;28;20064;-72
2021/12/17 04:05:57;;;;;;;56.22;16.52;;;4.10;99.90;;;;;;5025920;28;20076;-71
2021/12/17 04:08:23;;;;;;;39.03;15.55;;;3.90;99.90;;;;;;5031815;28;20068;-72
2021/12/17 04:10:51;;;;;;;35.22;14.88;;;3.90;99.90;;;;;;5030287;28;20033;-72
2021/12/17 04:15:55;;;;;;;29.90;12.65;;;3.70;99.90;;;;;;5025217;28;20040;-72
2021/12/17 04:18:21;;;;;;;26.90;11.50;;;3.80;99.90;;;;;;5030946;28;20052;-72
2021/12/17 04:20:47;;;;;;;30.65;10.95;;;3.80;99.90;;;;;;5021926;28;20482;-72
2021/12/17 04:23:12;;;;;;;27.20;10.90;;;3.90;99.90;;;;;;5031023;28;20057;-72
2021/12/17 04:25:38;;;;;;;23.98;9.27;;;3.90;99.90;;;;;;5018702;28;20041;-70
2021/12/17 04:28:04;;;;;;;33.50;12.85;;;4.00;99.90;;;;;;5014894;28;20041;-72
2021/12/17 04:30:31;;;;;;;32.20;12.20;;;4.00;99.90;;;;;;5006530;28;20045;-72
2021/12/17 04:32:57;;;;;;;29.75;11.65;;;4.00;99.90;;;;;;5023383;28;20085;-67
2021/12/17 04:35:23;;;;;;;26.42;10.57;;;4.00;99.90;;;;;;5024801;28;20402;-72
2021/12/17 04:37:49;;;;;;;26.15;9.73;;;4.00;99.90;;;;;;5011452;28;20065;-72
2021/12/17 04:40:16;;;;;;;25.65;9.70;;;4.10;99.90;;;;;;5027273;28;20049;-73
2021/12/17 04:42:57;;;;;;;28.77;9.82;;;4.10;99.90;;;;;;5011981;28;20080;-71
2021/12/17 04:45:24;;;;;;;25.08;10.43;;;4.10;99.90;;;;;;5011755;28;20050;-72
2021/12/17 04:58:46;;;;;;;22.95;9.57;;;3.80;99.90;;;;;;5002424;28;20049;-68
2021/12/17 05:01:14;;;;;;;26.63;9.65;;;3.80;99.90;;;;;;5016225;28;20038;-75
2021/12/17 05:03:40;;;;;;;26.75;10.93;;;3.80;99.90;;;;;;5011147;28;20034;-71
2021/12/17 05:06:07;;;;;;;27.15;10.98;;;3.80;99.90;;;;;;5009979;28;20022;-71
2021/12/17 05:08:33;;;;;;;27.25;11.02;;;3.90;99.90;;;;;;5011001;28;20030;-70
2021/12/17 05:21:38;;;;;;;22.35;9.38;;;4.00;99.90;;;;;;5010715;28;20479;-72
2021/12/17 05:24:04;;;;;;;23.80;9.65;;;4.00;99.90;;;;;;5008581;28;20486;-72
2021/12/17 05:26:30;;;;;;;26.02;10.68;;;3.90;99.90;;;;;;5009229;28;20046;-75
2021/12/17 05:28:56;;;;;;;18.85;8.52;;;3.90;99.90;;;;;;5008448;28;20033;-67
2021/12/17 05:31:22;;;;;;;21.38;8.95;;;3.90;99.90;;;;;;5010180;28;20037;-67
2021/12/17 05:33:52;;;;;;;18.52;6.93;;;3.90;99.90;;;;;;5009679;28;20029;-66
2021/12/17 05:36:21;;;;;;;15.27;6.28;;;3.90;99.90;;;;;;5009850;28;20034;-65
2021/12/17 05:38:46;;;;;;;60.10;22.27;;;3.90;99.90;;;;;;5010727;28;20091;-69
2021/12/17 05:41:13;;;;;;;55.13;21.13;;;4.00;99.90;;;;;;5009564;28;20111;-67
2021/12/17 05:43:39;;;;;;;39.92;17.63;;;4.00;99.90;;;;;;5010792;28;20609;-68
2021/12/17 05:46:12;;;;;;;30.33;12.70;;;3.90;99.90;;;;;;5009747;28;20034;-69
2021/12/17 05:48:40;;;;;;;34.53;13.90;;;3.90;99.90;;;;;;5009121;28;20034;-66
2021/12/17 05:51:09;;;;;;;31.70;11.88;;;3.90;99.90;;;;;;5009796;28;20030;-65
2021/12/17 05:53:35;;;;;;;31.42;11.73;;;3.80;99.90;;;;;;5010364;28;20034;-67
2021/12/17 05:56:02;;;;;;;23.35;9.23;;;3.80;99.90;;;;;;5009502;28;20477;-72
2021/12/17 05:58:28;;;;;;;21.38;9.27;;;3.80;99.90;;;;;;5009785;28;20048;-65
2021/12/17 06:00:55;;;;;;;22.38;9.52;;;3.80;99.90;;;;;;5008833;28;20534;-67
2021/12/17 06:03:23;;;;;;;25.52;9.32;;;3.70;99.90;;;;;;5009761;28;20018;-68
2021/12/17 06:05:49;;;;;;;23.05;9.77;;;3.80;99.90;;;;;;5010447;28;20386;-65
2021/12/17 06:08:15;;;;;;;23.23;10.32;;;3.70;99.90;;;;;;5009159;28;20029;-67
2021/12/17 06:10:41;;;;;;;24.13;10.07;;;3.70;99.90;;;;;;5010294;28;20030;-68
2021/12/17 06:13:06;;;;;;;19.58;8.23;;;3.70;99.90;;;;;;5009182;28;20036;-69
2021/12/17 06:15:32;;;;;;;19.88;8.75;;;3.70;99.90;;;;;;5009481;28;20394;-70
2021/12/17 06:17:58;;;;;;;18.58;8.73;;;3.80;99.90;;;;;;5010415;28;20347;-68
2021/12/17 06:20:24;;;;;;;21.65;8.93;;;3.80;99.90;;;;;;5009313;28;20108;-64
2021/12/17 06:22:51;;;;;;;18.38;7.43;;;3.80;99.90;;;;;;5010089;28;20441;-67
2021/12/17 06:25:17;;;;;;;14.30;6.88;;;3.70;99.90;;;;;;5008639;28;20111;-66
2021/12/17 06:27:43;;;;;;;18.02;6.68;;;3.80;99.90;;;;;;5009652;28;20062;-67
2021/12/17 06:30:12;;;;;;;17.20;7.20;;;3.80;99.90;;;;;;5012196;28;20171;-66
2021/12/17 06:32:38;;;;;;;20.38;8.30;;;3.80;99.90;;;;;;5008657;28;20107;-67
2021/12/17 06:35:04;;;;;;;20.35;9.43;;;3.70;99.90;;;;;;5009686;28;20033;-73
2021/12/17 06:37:30;;;;;;;18.85;8.10;;;3.70;99.90;;;;;;5010411;28;20466;-68
2021/12/17 06:39:58;;;;;;;20.17;8.57;;;3.60;99.90;;;;;;5009570;28;20034;-68
2021/12/17 06:42:26;;;;;;;24.65;10.95;;;3.60;99.90;;;;;;5007556;28;20625;-64
2021/12/17 06:44:56;;;;;;;19.83;7.95;;;3.50;99.90;;;;;;5022803;28;20430;-67
2021/12/17 06:47:33;;;;;;;17.70;7.82;;;3.40;99.90;;;;;;5018839;28;20034;-66
2021/12/17 07:17:08;;;;;;;24.90;9.48;;;2.70;99.90;;;;;;5011684;28;20030;-68
2021/12/17 07:22:31;;;;;;;24.45;10.50;;;2.80;99.90;;;;;;5016023;28;20041;-70
2021/12/17 07:33:22;;;;;;;26.08;10.50;;;2.50;99.90;;;;;;5024388;28;20042;-71
2021/12/17 07:35:46;;;;;;;27.17;11.90;;;2.50;99.90;;;;;;5017753;28;20045;-71
2021/12/17 07:40:57;;;;;;;29.02;10.00;;;2.30;99.90;;;;;;5031756;28;20044;-72
2021/12/17 07:44:07;;;;;;;32.25;12.07;;;2.20;99.90;;;;;;5020610;28;20116;-69
2021/12/17 07:46:11;;;;;;;31.23;13.13;;;2.10;99.90;;;;;;5010361;28;20046;-74
2021/12/17 07:48:38;;;;;;;38.50;14.23;;;2.00;99.90;;;;;;5028363;28;20479;-71
2021/12/17 07:51:07;;;;;;;106.22;14.13;;;2.10;99.90;;;;;;5027840;28;20108;-66
2021/12/17 07:53:34;;;;;;;93.28;13.02;;;2.00;99.90;;;;;;5028819;28;20036;-65
2021/12/17 07:56:01;;;;;;;100.70;12.20;;;2.00;99.90;;;;;;5023255;28;20033;-71
2021/12/17 07:58:29;;;;;;;51.58;12.10;;;2.00;99.90;;;;;;5016090;28;20034;-72
2021/12/17 08:00:55;;;;;;;36.22;12.13;;;1.90;99.90;;;;;;5023516;28;20034;-72
2021/12/17 08:03:21;;;;;;;50.60;11.40;;;1.90;99.90;;;;;;5017998;28;20033;-66
2021/12/17 08:05:47;;;;;;;70.40;11.82;;;1.90;99.90;;;;;;5015033;28;20030;-68
2021/12/17 08:08:13;;;;;;;28.50;12.30;;;1.90;99.90;;;;;;5012217;28;20061;-66
2021/12/17 08:10:39;;;;;;;28.55;11.88;;;1.90;99.90;;;;;;5012455;28;20026;-64
2021/12/17 08:13:07;;;;;;;25.55;11.02;;;1.80;99.90;;;;;;5014120;28;20138;-66
2021/12/17 08:15:41;;;;;;;39.17;10.55;;;1.90;99.90;;;;;;5015104;28;20034;-70
2021/12/17 08:18:49;;;;;;;28.23;10.75;;;1.90;99.90;;;;;;5021819;28;20052;-73
2021/12/17 08:31:24;;;;;;;35.33;10.18;;;1.90;99.90;;;;;;5007442;28;20061;-68
2021/12/17 08:33:50;;;;;;;36.25;12.48;;;1.90;99.90;;;;;;5013566;28;20045;-69
2021/12/17 08:36:16;;;;;;;31.08;14.52;;;2.00;99.90;;;;;;5010022;28;20030;-69
2021/12/17 08:38:43;;;;;;;21.10;10.32;;;2.10;99.90;;;;;;5028264;28;20117;-70
2021/12/17 08:41:09;;;;;;;44.80;9.40;;;2.30;99.90;;;;;;5018968;28;20025;-72
2021/12/17 08:43:35;;;;;;;79.70;9.75;;;2.30;99.90;;;;;;5022426;28;20477;-67
2021/12/17 08:46:02;;;;;;;20.50;8.65;;;2.40;99.90;;;;;;5024477;28;20044;-68
2021/12/17 08:48:28;;;;;;;22.67;9.32;;;2.40;99.90;;;;;;5015791;28;20103;-65
2021/12/17 08:50:53;;;;;;;20.98;10.02;;;2.50;99.90;;;;;;5022997;28;20425;-68
2021/12/17 08:53:19;;;;;;;24.35;10.52;;;2.70;99.90;;;;;;5017397;28;20057;-66
2021/12/17 08:55:45;;;;;;;19.65;9.30;;;2.80;99.90;;;;;;5013914;28;20489;-71
2021/12/17 08:58:13;;;;;;;35.67;16.70;;;2.90;99.90;;;;;;5025577;28;20037;-74
2021/12/17 09:00:40;;;;;;;22.55;10.18;;;3.10;99.90;;;;;;5021559;28;20032;-68
2021/12/17 09:03:09;;;;;;;17.73;9.00;;;3.20;99.90;;;;;;5016733;28;20037;-70
2021/12/17 09:05:40;;;;;;;21.67;9.80;;;3.40;99.90;;;;;;5023561;28;20033;-68
2021/12/17 09:08:06;;;;;;;;;;;3.50;99.90;;;;;;5025379;28;20045;-68
2021/12/17 09:10:32;;;;;;;21.20;9.20;;;3.60;99.90;;;;;;5022946;28;20019;-66
2021/12/17 09:12:59;;;;;;;22.20;10.00;;;3.70;99.90;;;;;;5027853;28;20052;-67
2021/12/17 09:15:25;;;;;;;22.75;10.45;;;3.90;99.90;;;;;;5023617;28;20332;-65
2021/12/17 09:17:51;;;;;;;25.60;12.02;;;3.90;99.90;;;;;;5021846;28;20037;-66
2021/12/17 09:20:17;;;;;;;40.38;15.45;;;4.00;99.90;;;;;;5017756;28;20030;-67
2021/12/17 09:22:43;;;;;;;44.83;19.48;;;4.10;99.90;;;;;;5022537;28;20052;-70
2021/12/17 09:25:09;;;;;;;43.88;20.27;;;4.30;99.90;;;;;;5024606;28;20036;-66
2021/12/17 09:27:35;;;;;;;52.90;24.67;;;4.40;99.90;;;;;;5022944;28;20129;-68
2021/12/17 09:30:01;;;;;;;29.85;15.13;;;4.60;99.90;;;;;;5020939;28;20148;-66
2021/12/17 09:32:27;;;;;;;29.23;14.18;;;4.60;99.90;;;;;;5017767;28;20039;-69
2021/12/17 09:34:53;;;;;;;23.17;11.00;;;4.70;99.90;;;;;;5023647;28;20029;-66
2021/12/17 09:37:18;;;;;;;19.63;9.75;;;4.80;99.90;;;;;;5023871;28;20037;-68
2021/12/17 09:39:45;;;;;;;20.48;9.85;;;4.80;99.90;;;;;;5022762;28;20520;-66
2021/12/17 09:42:10;;;;;;;23.58;11.82;;;5.00;99.90;;;;;;5009559;28;20084;-67
2021/12/17 09:44:37;;;;;;;18.50;9.30;;;5.00;99.90;;;;;;5009544;28;20030;-72
2021/12/17 09:47:03;;;;;;;19.02;8.95;;;5.20;99.90;;;;;;5027237;28;20116;-68
2021/12/17 09:49:29;;;;;;;17.05;8.35;;;5.30;99.90;;;;;;5026901;28;20463;-69
2021/12/17 09:51:56;;;;;;;17.20;8.02;;;5.40;99.90;;;;;;5024603;28;20102;-67
2021/12/17 09:54:22;;;;;;;17.20;8.82;;;5.40;99.90;;;;;;5018871;28;20088;-70
2021/12/17 09:56:48;;;;;;;25.95;12.13;;;5.60;99.90;;;;;;5021315;28;20065;-70
2021/12/17 09:59:15;;;;;;;18.45;8.60;;;5.70;99.90;;;;;;5023973;28;20037;-73
2021/12/17 10:01:42;;;;;;;23.63;11.63;;;5.80;99.90;;;;;;5023598;28;20102;-68
2021/12/17 10:04:34;;;;;;;24.15;11.02;;;5.80;99.90;;;;;;5024465;28;20025;-67
2021/12/17 10:07:25;;;;;;;19.70;9.27;;;5.80;99.90;;;;;;5011858;28;20085;-70
2021/12/17 10:09:53;;;;;;;19.17;9.05;;;5.90;99.90;;;;;;5021697;28;20033;-69
2021/12/17 10:12:28;;;;;;;18.92;9.25;;;5.70;99.90;;;;;;5026422;28;20029;-66
2021/12/17 10:15:07;;;;;;;20.23;9.52;;;5.70;99.90;;;;;;5023208;28;20029;-66
2021/12/17 10:17:50;;;;;;;23.27;10.27;;;5.80;99.90;;;;;;5026760;28;20033;-67
2021/12/17 10:20:15;;;;;;;19.50;8.35;;;5.90;99.90;;;;;;5018542;28;20041;-74
2021/12/17 10:22:54;;;;;;;23.13;9.88;;;5.80;99.90;;;;;;5016475;28;20030;-67
2021/12/17 10:25:21;;;;;;;19.73;9.05;;;5.90;99.90;;;;;;5014640;28;20042;-69
2021/12/17 10:27:47;;;;;;;23.63;9.95;;;6.10;99.90;;;;;;5021583;28;20062;-67
2021/12/17 10:30:21;;;;;;;22.08;9.43;;;6.50;99.90;;;;;;5013290;28;20036;-66
2021/12/17 10:32:52;;;;;;;19.35;9.02;;;6.50;99.90;;;;;;5022176;28;20396;-70
2021/12/17 10:35:23;;;;;;;19.05;8.63;;;6.80;99.90;;;;;;5022150;28;20033;-72
2021/12/17 10:38:00;;;;;;;22.52;9.82;;;6.80;99.90;;;;;;5016614;28;20071;-67
2021/12/17 10:40:46;;;;;;;22.67;8.77;;;6.70;99.90;;;;;;5018164;28;20542;-69
2021/12/17 10:43:26;;;;;;;24.17;9.57;;;6.90;99.90;;;;;;5024376;28;20368;-69
2021/12/17 10:46:07;;;;;;;15.45;7.72;;;7.10;99.90;;;;;;5024511;28;20042;-71
2021/12/17 10:48:48;;;;;;;19.15;8.40;;;7.20;99.90;;;;;;5012549;28;20497;-67
2021/12/17 10:51:20;;;;;;;15.75;7.47;;;7.10;99.90;;;;;;5010853;28;20029;-70
2021/12/17 10:53:54;;;;;;;16.63;8.10;;;7.20;99.90;;;;;;5024693;28;20041;-69
2021/12/17 10:56:25;;;;;;;19.13;8.40;;;7.10;99.90;;;;;;5017573;28;20049;-70
2021/12/17 10:59:13;;;;;;;17.33;8.15;;;7.20;99.90;;;;;;5011696;28;20128;-67
2021/12/17 11:01:46;;;;;;;16.75;8.18;;;7.30;99.90;;;;;;5017026;28;20026;-67
2021/12/17 11:04:21;;;;;;;17.05;8.40;;;7.40;99.90;;;;;;5026963;28;20033;-68
2021/12/17 11:07:00;;;;;;;16.80;7.72;;;7.40;99.90;;;;;;5021199;28;20045;-67
2021/12/17 11:09:31;;;;;;;18.02;7.90;;;7.40;99.90;;;;;;5018205;28;20071;-68
2021/12/17 11:12:01;;;;;;;15.73;7.60;;;7.50;99.90;;;;;;5021457;28;20131;-69
2021/12/17 11:14:29;;;;;;;15.18;7.65;;;7.70;99.90;;;;;;5024392;28;20474;-68
2021/12/17 11:16:54;;;;;;;15.45;7.97;;;7.80;99.90;;;;;;5013407;28;20545;-69
2021/12/17 11:19:20;;;;;;;16.23;7.30;;;7.90;99.90;;;;;;5002627;28;20042;-67
2021/12/17 11:21:46;;;;;;;15.32;7.43;;;7.90;99.90;;;;;;5001235;28;20030;-69
2021/12/17 11:24:14;;;;;;;13.18;6.55;;;8.00;99.90;;;;;;4994307;28;20081;-67
2021/12/17 11:26:41;;;;;;;16.02;6.80;;;8.00;99.90;;;;;;5009985;28;20129;-68
2021/12/17 11:29:07;;;;;;;14.75;6.63;;;8.20;99.90;;;;;;5029014;28;20040;-70
2021/12/17 11:31:33;;;;;;;14.00;7.13;;;8.20;99.90;;;;;;5007576;28;20085;-68
2021/12/17 11:34:01;;;;;;;13.32;6.97;;;8.20;99.90;;;;;;5029560;28;20030;-66
2021/12/17 11:36:28;;;;;;;14.55;6.72;;;8.10;99.90;;;;;;5026067;28;20106;-67
2021/12/17 11:39:05;;;;;;;15.32;7.57;;;8.00;99.90;;;;;;5016289;28;20046;-69
2021/12/17 11:41:54;;;;;;;15.77;8.20;;;8.00;99.90;;;;;;5007155;28;20033;-69
2021/12/17 11:44:27;;;;;;;15.88;7.63;;;8.30;99.90;;;;;;4998524;28;20078;-69
2021/12/17 11:47:12;;;;;;;17.88;7.60;;;8.30;99.90;;;;;;5000913;28;20549;-69
2021/12/17 11:49:52;;;;;;;17.33;8.23;;;8.20;99.90;;;;;;5020628;28;20041;-68
2021/12/17 11:52:33;;;;;;;16.23;7.55;;;8.30;99.90;;;;;;5004744;28;20049;-69
2021/12/17 11:55:38;;;;;;;14.05;7.03;;;8.40;99.90;;;;;;5026707;28;20085;-69
2021/12/17 11:58:08;;;;;;;15.38;7.25;;;8.70;99.90;;;;;;5013410;28;20063;-69
2021/12/17 12:00:40;;;;;;;16.38;7.10;;;9.00;99.90;;;;;;5023960;28;20029;-69
2021/12/17 12:03:19;;;;;;;14.05;7.00;;;9.20;99.90;;;;;;5014496;28;20055;-69
2021/12/17 12:05:47;;;;;;;13.32;6.68;;;9.10;99.90;;;;;;5022970;28;20137;-69
2021/12/17 12:08:50;;;;;;;17.52;8.23;;;9.00;99.90;;;;;;5006979;28;20739;-69
2021/12/17 12:11:22;;;;;;;17.50;7.90;;;9.30;99.90;;;;;;5015662;28;20471;-69
2021/12/17 12:13:52;;;;;;;13.65;6.90;;;9.30;99.90;;;;;;5022092;28;20531;-70
2021/12/17 12:16:27;;;;;;;15.18;6.95;;;9.40;99.90;;;;;;5006925;28;20052;-69
2021/12/17 12:18:57;;;;;;;14.13;7.07;;;9.30;99.90;;;;;;5023109;28;20041;-69
2021/12/17 12:21:25;;;;;;;13.80;6.60;;;9.40;99.90;;;;;;5015433;28;20103;-70
2021/12/17 12:23:55;;;;;;;13.98;6.90;;;9.50;99.90;;;;;;5018251;28;20983;-69
2021/12/17 12:26:26;;;;;;;15.43;7.00;;;9.60;99.90;;;;;;5013213;28;20971;-69
2021/12/17 12:29:03;;;;;;;12.73;6.43;;;9.80;99.90;;;;;;5029212;28;20314;-69
2021/12/17 12:31:32;;;;;;;12.60;6.13;;;9.80;99.90;;;;;;5012856;28;20121;-70
2021/12/17 12:34:04;;;;;;;11.57;5.63;;;10.00;99.90;;;;;;5029226;28;20110;-70
2021/12/17 12:36:48;;;;;;;13.38;5.80;;;10.20;99.90;;;;;;5018650;28;20040;-69
2021/12/17 12:39:15;;;;;;;11.38;5.72;;;10.10;99.90;;;;;;5019168;28;20048;-70
2021/12/17 12:41:45;;;;;;;11.60;5.45;;;9.70;99.90;;;;;;5013134;28;20092;-69
2021/12/17 12:44:10;;;;;;;14.07;6.47;;;9.80;99.90;;;;;;5034698;28;20156;-69
2021/12/17 12:46:57;;;;;;;11.43;5.88;;;9.90;99.90;;;;;;5015069;28;20816;-69
2021/12/17 12:49:41;;;;;;;11.15;5.57;;;9.90;99.90;;;;;;5036164;28;20060;-69
2021/12/17 12:52:39;;;;;;;12.52;5.85;;;9.80;99.90;;;;;;5012257;28;20053;-70
2021/12/17 12:55:25;;;;;;;14.75;6.75;;;9.20;99.90;;;;;;5000548;28;20041;-69
2021/12/17 12:57:58;;;;;;;14.10;6.50;;;9.00;99.90;;;;;;5007546;28;20037;-69
2021/12/17 13:00:29;;;;;;;14.48;6.57;;;9.20;99.90;;;;;;5035006;28;20034;-69
2021/12/17 13:03:15;;;;;;;20.00;7.47;;;9.50;99.90;;;;;;5002029;28;20116;-70
2021/12/17 13:05:43;;;;;;;13.38;6.72;;;9.50;99.90;;;;;;5033622;28;20620;-69
2021/12/17 13:08:12;;;;;;;13.80;6.22;;;9.70;99.90;;;;;;5010140;28;20158;-69
2021/12/17 13:10:41;;;;;;;14.20;6.30;;;9.70;99.90;;;;;;5035315;28;20034;-69
2021/12/17 13:16:03;;;;;;;13.50;6.35;;;9.10;99.90;;;;;;5032494;28;20068;-70
2021/12/17 13:24:07;;;;;;;13.80;6.50;;;8.20;99.90;;;;;;5021622;28;20041;-70
2021/12/17 13:26:34;;;;;;;14.55;6.38;;;8.10;99.90;;;;;;5018589;28;20038;-70
2021/12/17 13:29:10;;;;;;;15.27;6.80;;;8.00;99.90;;;;;;5015868;28;20055;-69
2021/12/17 13:31:41;;;;;;;14.75;6.32;;;7.80;99.90;;;;;;5018130;28;20587;-70
2021/12/17 13:34:10;;;;;;;14.55;6.82;;;7.70;99.90;;;;;;5021815;28;20068;-69
2021/12/17 13:36:42;;;;;;;15.23;7.37;;;7.60;99.90;;;;;;5017239;28;20038;-69
2021/12/17 13:39:11;;;;;;;16.77;7.20;;;7.50;99.90;;;;;;5025875;28;20644;-69
2021/12/17 13:41:40;;;;;;;15.85;7.60;;;7.40;99.90;;;;;;5018699;28;20391;-68
2021/12/17 13:44:23;;;;;;;15.35;7.45;;;7.30;99.90;;;;;;5011267;28;20033;-68
2021/12/17 13:46:49;;;;;;;15.10;7.78;;;7.30;99.90;;;;;;5010797;28;20052;-68
2021/12/17 13:49:14;;;;;;;16.05;7.25;;;7.20;99.90;;;;;;5010863;28;20451;-68
2021/12/17 13:51:40;;;;;;;16.08;7.80;;;7.10;99.90;;;;;;5009843;28;20248;-68
2021/12/17 13:54:07;;;;;;;16.67;7.93;;;7.00;99.90;;;;;;5011055;28;20034;-68
2021/12/17 13:56:32;;;;;;;17.92;7.65;;;7.00;99.90;;;;;;5008180;28;20142;-69
2021/12/17 13:59:02;;;;;;;17.55;7.93;;;6.90;99.90;;;;;;5010316;28;20101;-69
2021/12/17 14:01:27;;;;;;;15.25;7.70;;;6.80;99.90;;;;;;5009910;28;20030;-69
2021/12/17 14:03:53;;;;;;;16.95;8.20;;;6.70;99.90;;;;;;5009148;28;20535;-68
2021/12/17 14:06:25;;;;;;;16.45;7.65;;;6.60;99.90;;;;;;5010394;28;20547;-68
2021/12/17 14:08:51;;;;;;;24.60;8.70;;;6.60;99.90;;;;;;5010849;28;20117;-68
2021/12/17 14:11:35;;;;;;;18.92;9.05;;;6.60;99.90;;;;;;5009296;28;20144;-68
2021/12/17 14:14:00;;;;;;;20.45;9.10;;;6.60;99.90;;;;;;5010128;28;20087;-68
2021/12/17 14:16:37;;;;;;;20.58;9.77;;;6.60;99.90;;;;;;5009173;28;20120;-69
2021/12/17 14:19:03;;;;;;;18.90;9.52;;;6.60;99.90;;;;;;5010660;28;20030;-68
2021/12/17 14:21:30;;;;;;;17.90;9.18;;;6.60;99.90;;;;;;5009505;28;20045;-68
2021/12/17 14:23:56;;;;;;;15.68;8.00;;;6.60;99.90;;;;;;5010196;28;20083;-68
2021/12/17 14:26:31;;;;;;;20.30;9.27;;;6.70;99.90;;;;;;5008394;28;20136;-70
2021/12/17 14:29:10;;;;;;;21.38;11.27;;;6.70;99.90;;;;;;5010198;28;20030;-68
2021/12/17 14:31:36;;;;;;;22.67;10.90;;;6.60;99.90;;;;;;5009360;28;20033;-68
2021/12/17 14:34:02;;;;;;;21.92;10.75;;;6.40;99.90;;;;;;5010321;28;20422;-68
2021/12/17 14:36:38;;;;;;;30.63;13.68;;;6.30;99.90;;;;;;5009066;28;20117;-68
2021/12/17 14:39:13;;;;;;;68.68;24.92;;;6.10;99.90;;;;;;5008674;28;20095;-68
2021/12/17 14:42:00;;;;;;;26.02;10.52;;;6.00;99.90;;;;;;5009023;28;20364;-69
2021/12/17 14:47:05;;;;;;;33.15;13.50;;;6.00;99.90;;;;;;5009654;28;20040;-68
2021/12/17 15:00:32;;;;;;;32.70;11.77;;;6.10;99.90;;;;;;5009093;28;20049;-67
2021/12/17 15:03:42;;;;;;;33.63;10.70;;;6.00;99.90;;;;;;5009884;28;20459;-67
2021/12/17 15:05:48;;;;;;;30.38;10.88;;;6.00;99.90;;;;;;5003136;28;20058;-68
2021/12/17 15:08:14;;;;;;;22.13;10.10;;;5.90;99.90;;;;;;5008135;28;20041;-68
2021/12/17 15:10:41;;;;;;;21.50;10.00;;;5.90;99.90;;;;;;5007204;28;20054;-68
2021/12/17 15:13:07;;;;;;;23.67;10.40;;;5.80;99.90;;;;;;5009574;28;20104;-68
2021/12/17 15:15:35;;;;;;;24.83;10.75;;;5.80;99.90;;;;;;5008621;28;20037;-68
2021/12/17 15:18:14;;;;;;;20.73;9.35;;;5.80;99.90;;;;;;5009689;28;20475;-68
2021/12/17 15:20:44;;;;;;;23.70;10.38;;;5.70;99.90;;;;;;5008452;28;20037;-68
2021/12/17 15:23:10;;;;;;;;;;;5.70;99.90;;;;;;5010146;28;20554;-68
2021/12/17 15:25:38;;;;;;;20.67;9.27;;;5.70;99.90;;;;;;5006724;28;19953;-67
2021/12/17 15:28:06;;;;;;;19.85;9.02;;;5.70;99.90;;;;;;5008986;28;20550;-68
2021/12/17 15:30:36;;;;;;;20.95;9.65;;;5.60;99.90;;;;;;5008560;28;20037;-69
2021/12/17 15:33:02;;;;;;;20.65;9.85;;;5.60;99.90;;;;;;5009560;28;20033;-68
2021/12/17 15:35:29;;;;;;;23.42;10.55;;;5.60;99.90;;;;;;5008789;28;20490;-69
2021/12/17 15:37:56;;;;;;;22.30;10.38;;;5.50;99.90;;;;;;5009306;28;20038;-68
2021/12/17 15:40:24;;;;;;;23.23;9.80;;;5.50;99.90;;;;;;5008577;28;20034;-68
2021/12/17 15:42:51;;;;;;;24.45;11.25;;;5.40;99.90;;;;;;5011291;28;20037;-68
2021/12/17 15:45:17;;;;;;;26.02;12.10;;;5.40;99.90;;;;;;5009021;28;20029;-68
2021/12/17 15:47:43;;;;;;;26.75;12.50;;;5.40;99.90;;;;;;5008619;28;20026;-68
2021/12/17 15:50:12;;;;;;;22.77;10.00;;;5.30;99.90;;;;;;5006604;28;20172;-68
2021/12/17 15:52:44;;;;;;;23.95;10.57;;;5.30;99.90;;;;;;5007846;28;20062;-68
2021/12/17 15:55:10;;;;;;;22.30;10.07;;;5.30;99.90;;;;;;5007963;28;20022;-68
2021/12/17 15:57:36;;;;;;;22.02;9.88;;;5.30;99.90;;;;;;5012148;28;20058;-68
2021/12/17 16:00:03;;;;;;;21.48;9.30;;;5.30;99.90;;;;;;5024550;28;20037;-68
2021/12/17 16:02:29;;;;;;;22.48;9.48;;;5.30;99.90;;;;;;5021969;28;20532;-68
2021/12/17 16:04:55;;;;;;;23.83;10.07;;;5.20;99.90;;;;;;5031619;28;20026;-68
2021/12/17 16:07:21;;;;;;;21.85;10.05;;;5.20;99.90;;;;;;5007903;28;20120;-68
2021/12/17 16:11:07;;;;;;;22.92;10.77;;;5.10;99.90;;;;;;5011883;28;20830;-68
2021/12/17 16:23:08;;;;;;;24.08;9.77;;;5.00;99.90;;;;;;5023011;28;20105;-68